createdAt,value
2022-08-31T00:00:59.807Z,101523.40
2022-08-31T00:06:13.071Z,101529.55
2022-08-31T00:11:34.386Z,101528.80
2022-08-31T00:16:56.121Z,101532.19
2022-08-31T00:22:16.133Z,101530.05
2022-08-31T00:27:27.234Z,101527.59
2022-08-31T00:32:42.441Z,101526.28
2022-08-31T00:38:14.400Z,101529.31
2022-08-31T00:43:43.062Z,101526.25
2022-08-31T00:49:01.988Z,101526.95
2022-08-31T00:54:19.732Z,101525.33
2022-08-31T00:59:35.473Z,101520.43
2022-08-31T01:04:48.004Z,101524.17
2022-08-31T01:10:18.560Z,101526.95
2022-08-31T01:15:31.938Z,101526.06
2022-08-31T01:21:11.590Z,101527.38
2022-08-31T01:26:53.746Z,101533.06
2022-08-31T01:32:06.546Z,101532.96
2022-08-31T01:37:21.325Z,101530.02
2022-08-31T01:42:48.406Z,101524.13
2022-08-31T01:48:02.110Z,101520.89
2022-08-31T01:53:14.033Z,101529.63
2022-08-31T01:58:21.968Z,101530.92
2022-08-31T02:03:53.440Z,101535.94
2022-08-31T02:10:29.053Z,101537.59
2022-08-31T02:15:42.295Z,101541.61
2022-08-31T02:20:50.604Z,101546.27
2022-08-31T02:25:58.679Z,101541.55
2022-08-31T02:31:09.661Z,101535.88
2022-08-31T02:36:18.939Z,101533.86
2022-08-31T02:41:36.533Z,101533.41
2022-08-31T02:47:01.325Z,101534.74
2022-08-31T02:52:27.569Z,101528.41
2022-08-31T02:57:40.965Z,101525.48
2022-08-31T03:02:53.641Z,101522.52
2022-08-31T03:09:32.881Z,101519.73
2022-08-31T03:14:58.782Z,101518.27
2022-08-31T03:20:44.796Z,101521.67
2022-08-31T03:26:10.942Z,101520.77
2022-08-31T03:31:28.251Z,101532.77
2022-08-31T03:36:39.559Z,101540.00
2022-08-31T03:41:48.553Z,101541.61
2022-08-31T03:47:00.713Z,101544.72
2022-08-31T03:52:57.037Z,101543.10
2022-08-31T03:58:16.526Z,101542.40
2022-08-31T04:03:24.969Z,101540.61
2022-08-31T04:08:53.859Z,101543.33
2022-08-31T04:14:26.368Z,101539.24
2022-08-31T04:20:02.839Z,101536.87
2022-08-31T04:25:21.690Z,101539.14
2022-08-31T04:30:32.006Z,101543.24
2022-08-31T04:35:46.813Z,101547.73
2022-08-31T04:40:54.185Z,101551.76
2022-08-31T04:46:01.977Z,101553.51
2022-08-31T04:51:14.514Z,101549.64
2022-08-31T04:56:27.270Z,101551.64
2022-08-31T05:01:43.231Z,101562.35
2022-08-31T05:07:29.387Z,101565.38
2022-08-31T05:12:38.188Z,101576.83
2022-08-31T05:17:45.429Z,101579.40
2022-08-31T05:22:51.648Z,101577.54
2022-08-31T05:28:23.759Z,101581.88
2022-08-31T05:33:34.324Z,101586.41
2022-08-31T05:38:42.437Z,101588.09
2022-08-31T05:43:51.020Z,101592.58
2022-08-31T05:49:04.783Z,101590.89
2022-08-31T05:54:17.853Z,101594.14
2022-08-31T05:59:45.242Z,101594.62
2022-08-31T06:04:57.855Z,101592.71
2022-08-31T06:10:09.371Z,101599.01
2022-08-31T06:15:22.880Z,101600.30
2022-08-31T06:20:32.766Z,101609.27
2022-08-31T06:25:48.169Z,101611.39
2022-08-31T06:30:56.003Z,101614.07
2022-08-31T06:36:05.255Z,101608.79
2022-08-31T06:41:52.823Z,101606.88
2022-08-31T06:47:26.361Z,101602.30
2022-08-31T06:52:38.959Z,101598.58
2022-08-31T06:58:07.016Z,101601.77
2022-08-31T07:03:33.509Z,101598.98
2022-08-31T07:08:42.893Z,101602.79
2022-08-31T07:13:51.818Z,101601.15
2022-08-31T07:19:07.617Z,101603.70
2022-08-31T07:24:18.132Z,101606.83
2022-08-31T07:29:32.377Z,101606.33
2022-08-31T07:34:40.570Z,101609.60
2022-08-31T07:40:31.958Z,101607.83
2022-08-31T07:45:42.046Z,101607.73
2022-08-31T07:50:53.581Z,101614.89
2022-08-31T07:56:25.839Z,101624.11
2022-08-31T08:01:49.431Z,101622.05
2022-08-31T08:07:01.590Z,101623.02
2022-08-31T08:12:29.685Z,101626.23
2022-08-31T08:17:58.022Z,101628.71
2022-08-31T08:23:14.200Z,101630.37
2022-08-31T08:28:44.809Z,101628.58
2022-08-31T08:33:55.760Z,101635.77
2022-08-31T08:39:07.463Z,101632.77
2022-08-31T08:44:19.068Z,101632.89
2022-08-31T08:49:40.023Z,101637.23
2022-08-31T08:54:54.990Z,101642.92
2022-08-31T09:00:08.632Z,101650.20
2022-08-31T09:06:05.018Z,101650.94
2022-08-31T09:11:20.588Z,101644.48
2022-08-31T09:16:39.454Z,101655.42
2022-08-31T09:21:50.849Z,101648.66
2022-08-31T09:27:18.355Z,101641.79
2022-08-31T09:32:32.301Z,101644.09
2022-08-31T09:37:46.632Z,101647.06
2022-08-31T09:43:07.449Z,101651.14
2022-08-31T09:48:16.830Z,101649.80
2022-08-31T09:53:45.663Z,101652.19
2022-08-31T09:58:57.964Z,101648.00
2022-08-31T10:04:20.907Z,101646.00
2022-08-31T10:09:47.734Z,101643.77
2022-08-31T10:15:05.060Z,101641.09
2022-08-31T10:20:30.329Z,101643.49
2022-08-31T10:25:48.699Z,101649.25
2022-08-31T10:31:17.162Z,101651.32
2022-08-31T10:36:36.889Z,101655.50
2022-08-31T10:41:51.432Z,101658.02
2022-08-31T10:47:03.047Z,101659.42
2022-08-31T10:52:18.734Z,101657.89
2022-08-31T10:57:38.419Z,101656.92
2022-08-31T11:03:01.767Z,101653.66
2022-08-31T11:08:35.466Z,101652.42
2022-08-31T11:14:24.831Z,101647.41
2022-08-31T11:19:51.130Z,101642.43
2022-08-31T11:25:19.673Z,101637.05
2022-08-31T11:30:31.866Z,101629.33
2022-08-31T11:36:06.139Z,101623.55
2022-08-31T11:41:39.476Z,101622.82
2022-08-31T11:47:08.558Z,101623.25
2022-08-31T11:52:43.526Z,101615.20
2022-08-31T11:58:30.625Z,101603.22
2022-08-31T12:03:55.427Z,101600.36
2022-08-31T12:09:31.316Z,101604.88
2022-08-31T12:14:50.399Z,101611.05
2022-08-31T12:20:07.909Z,101608.67
2022-08-31T12:25:28.736Z,101605.34
2022-08-31T12:30:36.842Z,101596.02
2022-08-31T12:35:49.812Z,101588.55
2022-08-31T12:41:07.554Z,101587.41
2022-08-31T12:46:46.211Z,101587.30
2022-08-31T12:52:00.889Z,101595.09
2022-08-31T12:57:30.731Z,101596.77
2022-08-31T13:02:45.624Z,101596.96
2022-08-31T13:07:53.892Z,101591.10
2022-08-31T13:13:06.041Z,101587.20
2022-08-31T13:18:28.426Z,101582.96
2022-08-31T13:23:39.160Z,101593.17
2022-08-31T13:28:58.266Z,101591.08
2022-08-31T13:34:27.013Z,101589.84
2022-08-31T13:39:48.969Z,101587.04
2022-08-31T13:45:04.488Z,101587.64
2022-08-31T13:50:21.986Z,101577.41
2022-08-31T13:55:38.190Z,101568.49
2022-08-31T14:00:50.704Z,101565.79
2022-08-31T14:06:16.819Z,101562.34
2022-08-31T14:11:29.389Z,101557.39
2022-08-31T14:16:45.230Z,101553.96
2022-08-31T14:22:29.573Z,101547.67
2022-08-31T14:27:42.545Z,101545.17
2022-08-31T14:32:54.427Z,101551.88
2022-08-31T14:38:02.029Z,101547.73
2022-08-31T14:43:16.505Z,101553.73
2022-08-31T14:48:27.223Z,101551.45
2022-08-31T14:53:37.419Z,101553.60
2022-08-31T14:58:45.062Z,101560.91
2022-08-31T15:03:52.515Z,101562.00
2022-08-31T15:09:11.230Z,101562.11
2022-08-31T15:14:36.843Z,101561.14
2022-08-31T15:19:45.088Z,101557.63
2022-08-31T15:24:56.499Z,101562.85
2022-08-31T15:30:26.205Z,101558.75
2022-08-31T15:35:41.904Z,101556.58
2022-08-31T15:40:55.247Z,101555.73
2022-08-31T15:46:05.702Z,101554.20
2022-08-31T15:51:20.951Z,101553.86
2022-08-31T15:56:32.199Z,101552.27
2022-08-31T16:01:40.522Z,101554.40
2022-08-31T16:06:59.538Z,101551.25
2022-08-31T16:12:19.431Z,101550.63
2022-08-31T16:17:38.339Z,101544.30
2022-08-31T16:23:07.421Z,101543.98
2022-08-31T16:28:15.662Z,101543.63
2022-08-31T16:33:25.499Z,101537.59
2022-08-31T16:38:31.270Z,101536.27
2022-08-31T16:43:39.133Z,101537.64
2022-08-31T16:49:06.568Z,101533.53
2022-08-31T16:54:14.247Z,101534.93
2022-08-31T16:59:26.266Z,101532.67
2022-08-31T17:04:54.328Z,101529.67
2022-08-31T17:10:07.279Z,101529.48
2022-08-31T17:15:21.058Z,101536.91
2022-08-31T17:20:31.336Z,101539.16
2022-08-31T17:25:42.343Z,101542.05
2022-08-31T17:30:50.038Z,101542.82
2022-08-31T17:35:56.063Z,101541.21
2022-08-31T17:41:09.676Z,101547.52
2022-08-31T17:46:17.983Z,101556.88
2022-08-31T17:51:31.012Z,101560.70
2022-08-31T17:56:47.754Z,101565.70
2022-08-31T18:02:07.998Z,101568.92
2022-08-31T18:07:16.092Z,101573.23
2022-08-31T18:12:27.633Z,101573.82
2022-08-31T18:17:35.702Z,101567.09
2022-08-31T18:22:43.303Z,101564.33
2022-08-31T18:27:50.844Z,101571.74
2022-08-31T18:32:59.719Z,101581.75
2022-08-31T18:38:07.396Z,101586.91
2022-08-31T18:43:33.641Z,101585.77
2022-08-31T18:49:01.113Z,101590.84
2022-08-31T18:54:17.532Z,101589.04
2022-08-31T18:59:33.487Z,101589.49
2022-08-31T19:04:41.492Z,101588.46
2022-08-31T19:09:52.336Z,101587.11
2022-08-31T19:15:04.246Z,101585.66
2022-08-31T19:20:19.191Z,101584.32
2022-08-31T19:25:26.595Z,101587.17
2022-08-31T19:30:35.140Z,101589.73
2022-08-31T19:35:45.889Z,101584.03
2022-08-31T19:40:53.622Z,101589.35
2022-08-31T19:46:10.958Z,101591.64
2022-08-31T19:51:20.593Z,101592.95
2022-08-31T19:56:31.307Z,101591.86
2022-08-31T20:01:41.768Z,101596.27
2022-08-31T20:07:24.244Z,101594.05
2022-08-31T20:12:39.940Z,101597.23
2022-08-31T20:17:48.228Z,101595.23
2022-08-31T20:22:55.546Z,101596.18
2022-08-31T20:28:07.477Z,101596.98
2022-08-31T20:33:16.230Z,101600.80
2022-08-31T20:38:39.549Z,101604.84
2022-08-31T20:43:49.209Z,101604.59
2022-08-31T20:49:17.507Z,101610.88
2022-08-31T20:54:31.620Z,101611.95
2022-08-31T20:59:42.379Z,101615.73
2022-08-31T21:04:52.738Z,101614.23
2022-08-31T21:10:01.990Z,101619.27
2022-08-31T21:15:13.764Z,101620.30
2022-08-31T21:20:21.901Z,101616.74
2022-08-31T21:25:47.106Z,101621.55
2022-08-31T21:31:15.819Z,101620.41
2022-08-31T21:36:34.778Z,101621.77
2022-08-31T21:41:46.299Z,101617.50
2022-08-31T21:46:54.850Z,101616.91
2022-08-31T21:52:05.730Z,101616.16
2022-08-31T21:57:18.167Z,101616.37
2022-08-31T22:02:26.288Z,101612.48
2022-08-31T22:07:40.426Z,101618.75
2022-08-31T22:12:48.266Z,101617.52
2022-08-31T22:18:15.474Z,101617.73
2022-08-31T22:23:24.662Z,101618.21
2022-08-31T22:28:32.854Z,101622.97
2022-08-31T22:33:47.360Z,101620.11
2022-08-31T22:38:56.594Z,101622.19
2022-08-31T22:44:23.010Z,101622.71
2022-08-31T22:49:53.798Z,101619.02
2022-08-31T22:55:22.458Z,101613.51
2022-08-31T23:00:36.267Z,101610.16
2022-08-31T23:05:44.200Z,101606.91
2022-08-31T23:10:54.814Z,101605.55
2022-08-31T23:16:27.130Z,101602.41
2022-08-31T23:21:52.923Z,101601.18
2022-08-31T23:27:10.738Z,101595.35
2022-08-31T23:32:26.402Z,101589.67
2022-08-31T23:37:34.628Z,101590.01
2022-08-31T23:42:43.075Z,101586.94
2022-08-31T23:47:53.786Z,101588.97
2022-08-31T23:53:01.192Z,101590.48
2022-08-31T23:58:12.139Z,101588.35
